sensor_id;sensor_type;location;lat;lon;timestamp;temperature;humidity
12700;DHT22;6414;49.570;6.060;2023-04-24T00:01:15;8.70;99.90
12700;DHT22;6414;49.570;6.060;2023-04-24T00:04:01;8.70;99.90
12700;DHT22;6414;49.570;6.060;2023-04-24T00:06:47;8.60;99.90
12700;DHT22;6414;49.570;6.060;2023-04-24T00:09:33;8.70;99.90
12700;DHT22;6414;49.570;6.060;2023-04-24T00:12:20;8.60;99.90
12700;DHT22;6414;49.570;6.060;2023-04-24T00:15:06;8.60;99.90
12700;DHT22;6414;49.570;6.060;2023-04-24T00:17:53;8.60;99.90
12700;DHT22;6414;49.570;6.060;2023-04-24T00:20:39;8.60;99.90
12700;DHT22;6414;49.570;6.060;2023-04-24T00:23:26;8.40;99.90
12700;DHT22;6414;49.570;6.060;2023-04-24T00:26:12;8.50;99.90
12700;DHT22;6414;49.570;6.060;2023-04-24T00:28:58;8.50;99.90
12700;DHT22;6414;49.570;6.060;2023-04-24T00:31:45;8.40;99.90
12700;DHT22;6414;49.570;6.060;2023-04-24T00:34:31;8.40;99.90
12700;DHT22;6414;49.570;6.060;2023-04-24T00:37:18;8.40;99.90
12700;DHT22;6414;49.570;6.060;2023-04-24T00:40:04;8.30;99.90
12700;DHT22;6414;49.570;6.060;2023-04-24T00:42:51;8.30;99.90
12700;DHT22;6414;49.570;6.060;2023-04-24T00:45:37;8.20;99.90
12700;DHT22;6414;49.570;6.060;2023-04-24T00:48:23;8.30;99.90
12700;DHT22;6414;49.570;6.060;2023-04-24T00:51:09;8.20;99.90
12700;DHT22;6414;49.570;6.060;2023-04-24T00:53:55;8.10;99.90
12700;DHT22;6414;49.570;6.060;2023-04-24T00:56:41;8.00;99.90
12700;DHT22;6414;49.570;6.060;2023-04-24T00:59:27;7.80;99.90
12700;DHT22;6414;49.570;6.060;2023-04-24T01:02:13;7.70;99.90
12700;DHT22;6414;49.570;6.060;2023-04-24T01:05:00;7.70;99.90
12700;DHT22;6414;49.570;6.060;2023-04-24T01:07:46;7.70;99.90
12700;DHT22;6414;49.570;6.060;2023-04-24T01:10:33;7.60;99.90
12700;DHT22;6414;49.570;6.060;2023-04-24T01:13:21;7.60;99.90
12700;DHT22;6414;49.570;6.060;2023-04-24T01:16:07;7.60;99.90
12700;DHT22;6414;49.570;6.060;2023-04-24T01:18:54;7.50;99.90
12700;DHT22;6414;49.570;6.060;2023-04-24T01:21:40;7.50;99.90
12700;DHT22;6414;49.570;6.060;2023-04-24T01:24:26;7.40;99.90
12700;DHT22;6414;49.570;6.060;2023-04-24T01:27:12;7.40;99.90
12700;DHT22;6414;49.570;6.060;2023-04-24T01:29:58;7.30;99.90
12700;DHT22;6414;49.570;6.060;2023-04-24T01:32:44;7.20;99.90
12700;DHT22;6414;49.570;6.060;2023-04-24T01:35:31;7.10;99.90
12700;DHT22;6414;49.570;6.060;2023-04-24T01:38:16;7.10;99.90
12700;DHT22;6414;49.570;6.060;2023-04-24T01:41:03;7.10;99.90
12700;DHT22;6414;49.570;6.060;2023-04-24T01:43:48;7.00;99.90
12700;DHT22;6414;49.570;6.060;2023-04-24T01:46:34;7.00;99.90
12700;DHT22;6414;49.570;6.060;2023-04-24T01:49:20;7.00;99.90
12700;DHT22;6414;49.570;6.060;2023-04-24T01:52:06;7.10;99.90
12700;DHT22;6414;49.570;6.060;2023-04-24T01:54:53;7.10;99.90
12700;DHT22;6414;49.570;6.060;2023-04-24T01:57:38;7.10;99.90
12700;DHT22;6414;49.570;6.060;2023-04-24T02:00:24;7.10;99.90
12700;DHT22;6414;49.570;6.060;2023-04-24T02:03:11;7.10;99.90
12700;DHT22;6414;49.570;6.060;2023-04-24T02:05:56;7.10;99.90
12700;DHT22;6414;49.570;6.060;2023-04-24T02:08:44;7.10;99.90
12700;DHT22;6414;49.570;6.060;2023-04-24T02:11:30;7.10;99.90
12700;DHT22;6414;49.570;6.060;2023-04-24T02:14:17;7.00;99.90
12700;DHT22;6414;49.570;6.060;2023-04-24T02:17:03;6.90;99.90
12700;DHT22;6414;49.570;6.060;2023-04-24T02:19:50;6.90;99.90
12700;DHT22;6414;49.570;6.060;2023-04-24T02:22:37;6.90;99.90
12700;DHT22;6414;49.570;6.060;2023-04-24T02:25:23;6.80;99.90
12700;DHT22;6414;49.570;6.060;2023-04-24T02:28:09;6.90;99.90
12700;DHT22;6414;49.570;6.060;2023-04-24T02:30:55;7.00;99.90
12700;DHT22;6414;49.570;6.060;2023-04-24T02:33:42;7.00;99.90
12700;DHT22;6414;49.570;6.060;2023-04-24T02:36:28;7.00;99.90
12700;DHT22;6414;49.570;6.060;2023-04-24T02:39:14;7.10;99.90
12700;DHT22;6414;49.570;6.060;2023-04-24T02:42:01;7.10;99.90
12700;DHT22;6414;49.570;6.060;2023-04-24T02:44:47;7.00;99.90
12700;DHT22;6414;49.570;6.060;2023-04-24T02:47:33;7.10;99.90
12700;DHT22;6414;49.570;6.060;2023-04-24T02:50:18;7.10;99.90
12700;DHT22;6414;49.570;6.060;2023-04-24T02:53:04;7.20;99.90
12700;DHT22;6414;49.570;6.060;2023-04-24T02:55:51;7.20;99.90
12700;DHT22;6414;49.570;6.060;2023-04-24T02:58:38;7.20;99.90
12700;DHT22;6414;49.570;6.060;2023-04-24T03:01:24;7.20;99.90
12700;DHT22;6414;49.570;6.060;2023-04-24T03:04:10;7.10;99.90
12700;DHT22;6414;49.570;6.060;2023-04-24T03:06:56;7.20;99.90
12700;DHT22;6414;49.570;6.060;2023-04-24T03:09:42;7.10;99.90
12700;DHT22;6414;49.570;6.060;2023-04-24T03:12:28;7.10;99.90
12700;DHT22;6414;49.570;6.060;2023-04-24T03:15:15;7.20;99.90
12700;DHT22;6414;49.570;6.060;2023-04-24T03:18:02;7.10;99.90
12700;DHT22;6414;49.570;6.060;2023-04-24T03:20:48;7.00;99.90
12700;DHT22;6414;49.570;6.060;2023-04-24T03:23:35;7.00;99.90
12700;DHT22;6414;49.570;6.060;2023-04-24T03:26:21;7.00;99.90
12700;DHT22;6414;49.570;6.060;2023-04-24T03:29:07;7.10;99.90
12700;DHT22;6414;49.570;6.060;2023-04-24T03:31:53;7.00;99.90
12700;DHT22;6414;49.570;6.060;2023-04-24T03:34:39;7.00;99.90
12700;DHT22;6414;49.570;6.060;2023-04-24T03:37:25;7.00;99.90
12700;DHT22;6414;49.570;6.060;2023-04-24T03:40:11;7.00;99.90
12700;DHT22;6414;49.570;6.060;2023-04-24T03:42:57;7.10;99.90
12700;DHT22;6414;49.570;6.060;2023-04-24T03:45:43;7.00;99.90
12700;DHT22;6414;49.570;6.060;2023-04-24T03:48:29;7.00;99.90
12700;DHT22;6414;49.570;6.060;2023-04-24T03:51:15;7.00;99.90
12700;DHT22;6414;49.570;6.060;2023-04-24T03:54:02;7.00;99.90
12700;DHT22;6414;49.570;6.060;2023-04-24T03:56:48;7.00;99.90
12700;DHT22;6414;49.570;6.060;2023-04-24T03:59:35;7.00;99.90
12700;DHT22;6414;49.570;6.060;2023-04-24T04:02:21;7.00;99.90
12700;DHT22;6414;49.570;6.060;2023-04-24T04:05:07;6.90;99.90
12700;DHT22;6414;49.570;6.060;2023-04-24T04:07:54;7.00;99.90
12700;DHT22;6414;49.570;6.060;2023-04-24T04:10:40;7.00;99.90
12700;DHT22;6414;49.570;6.060;2023-04-24T04:13:27;6.90;99.90
12700;DHT22;6414;49.570;6.060;2023-04-24T04:16:13;6.90;99.90
12700;DHT22;6414;49.570;6.060;2023-04-24T04:19:00;6.80;99.90
12700;DHT22;6414;49.570;6.060;2023-04-24T04:21:46;6.90;99.90
12700;DHT22;6414;49.570;6.060;2023-04-24T04:24:32;6.90;99.90
12700;DHT22;6414;49.570;6.060;2023-04-24T04:27:19;6.80;99.90
12700;DHT22;6414;49.570;6.060;2023-04-24T04:30:05;6.80;99.90
12700;DHT22;6414;49.570;6.060;2023-04-24T04:32:51;6.90;99.90
12700;DHT22;6414;49.570;6.060;2023-04-24T04:35:38;6.90;99.90
12700;DHT22;6414;49.570;6.060;2023-04-24T04:38:24;6.90;99.90
12700;DHT22;6414;49.570;6.060;2023-04-24T04:41:10;6.90;99.90
12700;DHT22;6414;49.570;6.060;2023-04-24T04:43:56;6.90;99.90
12700;DHT22;6414;49.570;6.060;2023-04-24T04:46:42;6.90;99.90
12700;DHT22;6414;49.570;6.060;2023-04-24T04:49:28;6.90;99.90
12700;DHT22;6414;49.570;6.060;2023-04-24T04:52:14;6.90;99.90
12700;DHT22;6414;49.570;6.060;2023-04-24T04:55:00;6.90;99.90
12700;DHT22;6414;49.570;6.060;2023-04-24T04:57:46;6.90;99.90
12700;DHT22;6414;49.570;6.060;2023-04-24T05:00:32;6.90;99.90
12700;DHT22;6414;49.570;6.060;2023-04-24T05:03:18;7.00;99.90
12700;DHT22;6414;49.570;6.060;2023-04-24T05:06:05;7.00;99.90
12700;DHT22;6414;49.570;6.060;2023-04-24T05:08:51;7.00;99.90
12700;DHT22;6414;49.570;6.060;2023-04-24T05:11:38;7.00;99.90
12700;DHT22;6414;49.570;6.060;2023-04-24T05:14:25;7.10;99.90
12700;DHT22;6414;49.570;6.060;2023-04-24T05:17:11;7.10;99.90
12700;DHT22;6414;49.570;6.060;2023-04-24T05:19:57;7.10;99.90
12700;DHT22;6414;49.570;6.060;2023-04-24T05:22:43;7.00;99.90
12700;DHT22;6414;49.570;6.060;2023-04-24T05:25:29;7.10;99.90
12700;DHT22;6414;49.570;6.060;2023-04-24T05:28:15;7.10;99.90
12700;DHT22;6414;49.570;6.060;2023-04-24T05:31:02;7.00;99.90
12700;DHT22;6414;49.570;6.060;2023-04-24T05:33:48;7.00;99.90
12700;DHT22;6414;49.570;6.060;2023-04-24T05:36:34;6.80;99.90
12700;DHT22;6414;49.570;6.060;2023-04-24T05:39:20;6.80;99.90
12700;DHT22;6414;49.570;6.060;2023-04-24T05:42:07;6.80;99.90
12700;DHT22;6414;49.570;6.060;2023-04-24T05:44:54;6.80;99.90
12700;DHT22;6414;49.570;6.060;2023-04-24T05:47:41;6.80;99.90
12700;DHT22;6414;49.570;6.060;2023-04-24T05:50:27;6.80;99.90
12700;DHT22;6414;49.570;6.060;2023-04-24T05:53:13;6.80;99.90
12700;DHT22;6414;49.570;6.060;2023-04-24T05:55:59;6.80;99.90
12700;DHT22;6414;49.570;6.060;2023-04-24T05:58:45;6.80;99.90
12700;DHT22;6414;49.570;6.060;2023-04-24T06:01:31;6.70;99.90
12700;DHT22;6414;49.570;6.060;2023-04-24T06:04:17;6.80;99.90
12700;DHT22;6414;49.570;6.060;2023-04-24T06:07:03;6.80;99.90
12700;DHT22;6414;49.570;6.060;2023-04-24T06:09:49;6.80;99.90
12700;DHT22;6414;49.570;6.060;2023-04-24T06:12:35;6.80;99.90
12700;DHT22;6414;49.570;6.060;2023-04-24T06:15:21;6.80;99.90
12700;DHT22;6414;49.570;6.060;2023-04-24T06:18:07;6.90;99.90
12700;DHT22;6414;49.570;6.060;2023-04-24T06:20:54;7.00;99.90
12700;DHT22;6414;49.570;6.060;2023-04-24T06:23:40;7.00;99.90
12700;DHT22;6414;49.570;6.060;2023-04-24T06:26:26;7.10;99.90
12700;DHT22;6414;49.570;6.060;2023-04-24T06:29:13;7.00;99.90
12700;DHT22;6414;49.570;6.060;2023-04-24T06:31:59;7.00;99.90
12700;DHT22;6414;49.570;6.060;2023-04-24T06:34:46;7.00;99.90
12700;DHT22;6414;49.570;6.060;2023-04-24T06:37:32;7.00;99.90
12700;DHT22;6414;49.570;6.060;2023-04-24T06:40:18;7.00;99.90
12700;DHT22;6414;49.570;6.060;2023-04-24T06:43:04;6.90;99.90
12700;DHT22;6414;49.570;6.060;2023-04-24T06:45:50;7.00;99.90
12700;DHT22;6414;49.570;6.060;2023-04-24T06:48:36;6.90;99.90
12700;DHT22;6414;49.570;6.060;2023-04-24T06:51:23;6.90;99.90
12700;DHT22;6414;49.570;6.060;2023-04-24T06:54:08;6.90;99.90
12700;DHT22;6414;49.570;6.060;2023-04-24T06:56:54;6.80;99.90
12700;DHT22;6414;49.570;6.060;2023-04-24T06:59:40;6.90;99.90
12700;DHT22;6414;49.570;6.060;2023-04-24T07:02:27;6.90;99.90
12700;DHT22;6414;49.570;6.060;2023-04-24T07:05:13;6.90;99.90
12700;DHT22;6414;49.570;6.060;2023-04-24T07:07:59;7.00;99.90
12700;DHT22;6414;49.570;6.060;2023-04-24T07:10:46;6.90;99.90
12700;DHT22;6414;49.570;6.060;2023-04-24T07:13:32;6.90;99.90
12700;DHT22;6414;49.570;6.060;2023-04-24T07:16:19;6.90;99.90
12700;DHT22;6414;49.570;6.060;2023-04-24T07:19:06;6.90;99.90
12700;DHT22;6414;49.570;6.060;2023-04-24T07:21:52;7.00;99.90
12700;DHT22;6414;49.570;6.060;2023-04-24T07:24:39;7.00;99.90
12700;DHT22;6414;49.570;6.060;2023-04-24T07:27:25;7.00;99.90
12700;DHT22;6414;49.570;6.060;2023-04-24T07:30:11;7.10;99.90
12700;DHT22;6414;49.570;6.060;2023-04-24T07:32:59;7.10;99.90
12700;DHT22;6414;49.570;6.060;2023-04-24T07:35:45;7.10;99.90
12700;DHT22;6414;49.570;6.060;2023-04-24T07:38:31;7.10;99.90
12700;DHT22;6414;49.570;6.060;2023-04-24T07:41:17;7.20;99.90
12700;DHT22;6414;49.570;6.060;2023-04-24T07:44:04;7.20;99.90
12700;DHT22;6414;49.570;6.060;2023-04-24T07:46:50;7.30;99.90
12700;DHT22;6414;49.570;6.060;2023-04-24T07:49:36;7.20;99.90
12700;DHT22;6414;49.570;6.060;2023-04-24T07:52:23;7.30;99.90
12700;DHT22;6414;49.570;6.060;2023-04-24T07:55:09;7.20;99.90
12700;DHT22;6414;49.570;6.060;2023-04-24T07:57:54;7.30;99.90
12700;DHT22;6414;49.570;6.060;2023-04-24T08:00:42;7.20;99.90
12700;DHT22;6414;49.570;6.060;2023-04-24T08:03:28;7.20;99.90
12700;DHT22;6414;49.570;6.060;2023-04-24T08:06:14;7.10;99.90
12700;DHT22;6414;49.570;6.060;2023-04-24T08:09:00;7.20;99.90
12700;DHT22;6414;49.570;6.060;2023-04-24T08:11:46;7.20;99.90
12700;DHT22;6414;49.570;6.060;2023-04-24T08:14:32;7.20;99.90
12700;DHT22;6414;49.570;6.060;2023-04-24T08:17:19;7.20;99.90
12700;DHT22;6414;49.570;6.060;2023-04-24T08:20:05;7.20;99.90
12700;DHT22;6414;49.570;6.060;2023-04-24T08:22:51;7.30;99.90
12700;DHT22;6414;49.570;6.060;2023-04-24T08:25:37;7.30;99.90
12700;DHT22;6414;49.570;6.060;2023-04-24T08:28:23;7.20;99.90
12700;DHT22;6414;49.570;6.060;2023-04-24T08:31:09;7.30;99.90
12700;DHT22;6414;49.570;6.060;2023-04-24T08:33:55;7.30;99.90
12700;DHT22;6414;49.570;6.060;2023-04-24T08:36:43;7.70;99.90
12700;DHT22;6414;49.570;6.060;2023-04-24T08:39:29;7.70;99.90
12700;DHT22;6414;49.570;6.060;2023-04-24T08:42:16;8.00;99.90
12700;DHT22;6414;49.570;6.060;2023-04-24T08:45:02;8.00;99.90
12700;DHT22;6414;49.570;6.060;2023-04-24T08:47:48;8.20;99.90
12700;DHT22;6414;49.570;6.060;2023-04-24T08:50:34;8.70;99.90
12700;DHT22;6414;49.570;6.060;2023-04-24T08:53:21;9.00;99.90
12700;DHT22;6414;49.570;6.060;2023-04-24T08:56:07;9.00;99.90
12700;DHT22;6414;49.570;6.060;2023-04-24T08:58:53;9.10;99.90
12700;DHT22;6414;49.570;6.060;2023-04-24T09:01:39;9.10;99.90
12700;DHT22;6414;49.570;6.060;2023-04-24T09:04:24;9.20;99.90
12700;DHT22;6414;49.570;6.060;2023-04-24T09:07:11;9.00;99.90
12700;DHT22;6414;49.570;6.060;2023-04-24T09:09:57;8.90;99.90
12700;DHT22;6414;49.570;6.060;2023-04-24T09:12:43;8.90;99.90
12700;DHT22;6414;49.570;6.060;2023-04-24T09:15:29;8.90;99.90
12700;DHT22;6414;49.570;6.060;2023-04-24T09:18:16;9.10;99.90
12700;DHT22;6414;49.570;6.060;2023-04-24T09:21:09;9.00;99.90
12700;DHT22;6414;49.570;6.060;2023-04-24T09:24:02;9.00;99.90
12700;DHT22;6414;49.570;6.060;2023-04-24T09:26:47;9.00;99.90
12700;DHT22;6414;49.570;6.060;2023-04-24T09:29:33;9.20;99.90
12700;DHT22;6414;49.570;6.060;2023-04-24T09:32:20;8.80;99.90
12700;DHT22;6414;49.570;6.060;2023-04-24T09:35:09;8.70;99.90
12700;DHT22;6414;49.570;6.060;2023-04-24T09:37:55;9.30;99.90
12700;DHT22;6414;49.570;6.060;2023-04-24T09:40:41;9.30;99.90
12700;DHT22;6414;49.570;6.060;2023-04-24T09:43:28;9.40;99.90
12700;DHT22;6414;49.570;6.060;2023-04-24T09:46:14;9.20;99.90
12700;DHT22;6414;49.570;6.060;2023-04-24T09:49:07;9.20;99.90
12700;DHT22;6414;49.570;6.060;2023-04-24T09:51:47;9.20;99.90
12700;DHT22;6414;49.570;6.060;2023-04-24T09:54:32;9.20;99.90
12700;DHT22;6414;49.570;6.060;2023-04-24T09:57:18;9.00;99.90
12700;DHT22;6414;49.570;6.060;2023-04-24T10:00:05;9.00;99.90
12700;DHT22;6414;49.570;6.060;2023-04-24T10:02:54;8.90;99.90
12700;DHT22;6414;49.570;6.060;2023-04-24T10:05:37;8.90;99.90
12700;DHT22;6414;49.570;6.060;2023-04-24T10:08:23;9.00;99.90
12700;DHT22;6414;49.570;6.060;2023-04-24T10:11:09;10.00;99.90
12700;DHT22;6414;49.570;6.060;2023-04-24T10:13:55;10.40;99.90
12700;DHT22;6414;49.570;6.060;2023-04-24T10:16:42;10.20;99.90
12700;DHT22;6414;49.570;6.060;2023-04-24T10:19:28;10.20;99.90
12700;DHT22;6414;49.570;6.060;2023-04-24T10:22:15;10.10;99.90
12700;DHT22;6414;49.570;6.060;2023-04-24T10:25:03;9.90;99.90
12700;DHT22;6414;49.570;6.060;2023-04-24T10:27:49;9.80;99.90
12700;DHT22;6414;49.570;6.060;2023-04-24T10:30:34;9.60;99.90
12700;DHT22;6414;49.570;6.060;2023-04-24T10:33:23;9.50;99.90
12700;DHT22;6414;49.570;6.060;2023-04-24T10:36:09;9.60;99.90
12700;DHT22;6414;49.570;6.060;2023-04-24T10:38:56;9.60;99.90
12700;DHT22;6414;49.570;6.060;2023-04-24T10:41:42;9.60;99.90
12700;DHT22;6414;49.570;6.060;2023-04-24T10:44:35;9.90;99.90
12700;DHT22;6414;49.570;6.060;2023-04-24T10:47:14;10.20;99.90
12700;DHT22;6414;49.570;6.060;2023-04-24T10:50:00;10.30;99.90
12700;DHT22;6414;49.570;6.060;2023-04-24T10:52:49;10.60;99.90
12700;DHT22;6414;49.570;6.060;2023-04-24T10:55:44;10.50;99.90
12700;DHT22;6414;49.570;6.060;2023-04-24T10:58:42;10.10;99.90
12700;DHT22;6414;49.570;6.060;2023-04-24T11:01:26;10.20;99.90
12700;DHT22;6414;49.570;6.060;2023-04-24T11:04:11;10.10;99.90
12700;DHT22;6414;49.570;6.060;2023-04-24T11:06:58;10.60;99.90
12700;DHT22;6414;49.570;6.060;2023-04-24T11:09:44;10.60;99.90
12700;DHT22;6414;49.570;6.060;2023-04-24T11:12:31;10.30;99.90
12700;DHT22;6414;49.570;6.060;2023-04-24T11:15:16;10.20;99.90
12700;DHT22;6414;49.570;6.060;2023-04-24T11:18:02;10.20;99.90
12700;DHT22;6414;49.570;6.060;2023-04-24T11:20:48;10.20;99.90
12700;DHT22;6414;49.570;6.060;2023-04-24T11:23:35;10.20;99.90
12700;DHT22;6414;49.570;6.060;2023-04-24T11:26:23;10.30;99.90
12700;DHT22;6414;49.570;6.060;2023-04-24T11:29:12;10.20;99.90
12700;DHT22;6414;49.570;6.060;2023-04-24T11:31:59;10.30;99.90
12700;DHT22;6414;49.570;6.060;2023-04-24T11:34:48;10.30;99.90
12700;DHT22;6414;49.570;6.060;2023-04-24T11:37:34;10.50;99.90
12700;DHT22;6414;49.570;6.060;2023-04-24T11:40:20;10.90;99.90
12700;DHT22;6414;49.570;6.060;2023-04-24T11:43:06;11.20;99.90
12700;DHT22;6414;49.570;6.060;2023-04-24T11:45:52;11.50;99.90
12700;DHT22;6414;49.570;6.060;2023-04-24T11:48:38;11.40;99.90
12700;DHT22;6414;49.570;6.060;2023-04-24T11:51:25;11.30;99.90
12700;DHT22;6414;49.570;6.060;2023-04-24T11:54:13;11.40;99.90
12700;DHT22;6414;49.570;6.060;2023-04-24T11:56:59;11.60;99.90
12700;DHT22;6414;49.570;6.060;2023-04-24T11:59:46;11.60;99.90
12700;DHT22;6414;49.570;6.060;2023-04-24T12:02:32;11.90;99.90
12700;DHT22;6414;49.570;6.060;2023-04-24T12:05:25;11.80;99.90
12700;DHT22;6414;49.570;6.060;2023-04-24T12:08:11;11.20;99.90
12700;DHT22;6414;49.570;6.060;2023-04-24T12:10:58;11.10;99.90
12700;DHT22;6414;49.570;6.060;2023-04-24T12:13:44;11.00;99.90
12700;DHT22;6414;49.570;6.060;2023-04-24T12:16:30;11.00;99.90
12700;DHT22;6414;49.570;6.060;2023-04-24T12:19:23;11.10;99.90
12700;DHT22;6414;49.570;6.060;2023-04-24T12:22:09;11.00;99.90
12700;DHT22;6414;49.570;6.060;2023-04-24T12:24:59;10.90;99.90
12700;DHT22;6414;49.570;6.060;2023-04-24T12:27:51;10.50;99.90
12700;DHT22;6414;49.570;6.060;2023-04-24T12:30:34;10.40;99.90
12700;DHT22;6414;49.570;6.060;2023-04-24T12:33:19;10.50;99.90
12700;DHT22;6414;49.570;6.060;2023-04-24T12:36:05;10.80;99.90
12700;DHT22;6414;49.570;6.060;2023-04-24T12:38:52;10.60;99.90
12700;DHT22;6414;49.570;6.060;2023-04-24T12:41:37;10.60;99.90
12700;DHT22;6414;49.570;6.060;2023-04-24T12:44:30;10.70;99.90
12700;DHT22;6414;49.570;6.060;2023-04-24T12:47:16;10.40;99.90
12700;DHT22;6414;49.570;6.060;2023-04-24T12:50:02;10.30;99.90
12700;DHT22;6414;49.570;6.060;2023-04-24T12:52:47;10.20;99.90
12700;DHT22;6414;49.570;6.060;2023-04-24T12:55:34;9.80;99.90
12700;DHT22;6414;49.570;6.060;2023-04-24T12:58:20;9.90;99.90
12700;DHT22;6414;49.570;6.060;2023-04-24T13:01:07;10.10;99.90
12700;DHT22;6414;49.570;6.060;2023-04-24T13:03:53;10.10;99.90
12700;DHT22;6414;49.570;6.060;2023-04-24T13:06:40;10.70;99.90
12700;DHT22;6414;49.570;6.060;2023-04-24T13:09:26;10.70;99.90
12700;DHT22;6414;49.570;6.060;2023-04-24T13:12:13;11.10;99.90
12700;DHT22;6414;49.570;6.060;2023-04-24T13:14:59;11.10;99.90
12700;DHT22;6414;49.570;6.060;2023-04-24T13:17:46;11.10;99.90
12700;DHT22;6414;49.570;6.060;2023-04-24T13:20:33;11.10;99.90
12700;DHT22;6414;49.570;6.060;2023-04-24T13:23:18;11.00;99.90
12700;DHT22;6414;49.570;6.060;2023-04-24T13:26:04;11.10;99.90
12700;DHT22;6414;49.570;6.060;2023-04-24T13:28:50;11.30;99.90
12700;DHT22;6414;49.570;6.060;2023-04-24T13:31:37;11.30;99.90
12700;DHT22;6414;49.570;6.060;2023-04-24T13:34:23;11.30;99.90
12700;DHT22;6414;49.570;6.060;2023-04-24T13:37:09;11.30;99.90
12700;DHT22;6414;49.570;6.060;2023-04-24T13:39:55;11.40;99.90
12700;DHT22;6414;49.570;6.060;2023-04-24T13:42:41;11.40;99.90
12700;DHT22;6414;49.570;6.060;2023-04-24T13:45:27;11.30;99.90
12700;DHT22;6414;49.570;6.060;2023-04-24T13:48:13;11.20;99.90
12700;DHT22;6414;49.570;6.060;2023-04-24T13:51:01;11.20;99.90
12700;DHT22;6414;49.570;6.060;2023-04-24T13:53:47;11.30;99.90
12700;DHT22;6414;49.570;6.060;2023-04-24T13:56:34;12.00;99.90
12700;DHT22;6414;49.570;6.060;2023-04-24T13:59:20;11.90;99.90
12700;DHT22;6414;49.570;6.060;2023-04-24T14:02:07;12.40;99.90
12700;DHT22;6414;49.570;6.060;2023-04-24T14:04:53;12.40;99.90
12700;DHT22;6414;49.570;6.060;2023-04-24T14:07:40;11.90;99.90
12700;DHT22;6414;49.570;6.060;2023-04-24T14:10:26;11.90;99.90
12700;DHT22;6414;49.570;6.060;2023-04-24T14:13:12;11.70;99.90
12700;DHT22;6414;49.570;6.060;2023-04-24T14:15:59;11.50;99.90
12700;DHT22;6414;49.570;6.060;2023-04-24T14:18:45;11.40;99.90
12700;DHT22;6414;49.570;6.060;2023-04-24T14:21:32;11.20;99.90
12700;DHT22;6414;49.570;6.060;2023-04-24T14:24:18;11.10;99.90
12700;DHT22;6414;49.570;6.060;2023-04-24T14:27:05;11.00;99.90
12700;DHT22;6414;49.570;6.060;2023-04-24T14:29:52;11.00;99.90
12700;DHT22;6414;49.570;6.060;2023-04-24T14:32:38;10.90;99.90
12700;DHT22;6414;49.570;6.060;2023-04-24T14:35:24;10.70;99.90
12700;DHT22;6414;49.570;6.060;2023-04-24T14:38:11;10.40;99.90
12700;DHT22;6414;49.570;6.060;2023-04-24T14:40:56;10.30;99.90
12700;DHT22;6414;49.570;6.060;2023-04-24T14:43:42;10.10;99.90
12700;DHT22;6414;49.570;6.060;2023-04-24T14:46:29;9.80;99.90
12700;DHT22;6414;49.570;6.060;2023-04-24T14:49:15;9.60;99.90
12700;DHT22;6414;49.570;6.060;2023-04-24T14:52:01;9.60;99.90
12700;DHT22;6414;49.570;6.060;2023-04-24T14:54:47;9.60;99.90
12700;DHT22;6414;49.570;6.060;2023-04-24T14:57:34;9.60;99.90
12700;DHT22;6414;49.570;6.060;2023-04-24T15:00:20;9.80;99.90
12700;DHT22;6414;49.570;6.060;2023-04-24T15:03:06;9.70;99.90
12700;DHT22;6414;49.570;6.060;2023-04-24T15:05:52;9.60;99.90
12700;DHT22;6414;49.570;6.060;2023-04-24T15:08:38;9.60;99.90
12700;DHT22;6414;49.570;6.060;2023-04-24T15:11:24;9.80;99.90
12700;DHT22;6414;49.570;6.060;2023-04-24T15:14:10;9.90;99.90
12700;DHT22;6414;49.570;6.060;2023-04-24T15:16:57;10.10;99.90
12700;DHT22;6414;49.570;6.060;2023-04-24T15:19:43;10.20;99.90
12700;DHT22;6414;49.570;6.060;2023-04-24T15:22:30;10.30;99.90
12700;DHT22;6414;49.570;6.060;2023-04-24T15:25:16;10.30;99.90
12700;DHT22;6414;49.570;6.060;2023-04-24T15:28:02;10.30;99.90
12700;DHT22;6414;49.570;6.060;2023-04-24T15:30:48;10.30;99.90
12700;DHT22;6414;49.570;6.060;2023-04-24T15:33:34;10.20;99.90
12700;DHT22;6414;49.570;6.060;2023-04-24T15:36:21;10.30;99.90
12700;DHT22;6414;49.570;6.060;2023-04-24T15:39:07;10.40;99.90
12700;DHT22;6414;49.570;6.060;2023-04-24T15:41:53;10.50;99.90
12700;DHT22;6414;49.570;6.060;2023-04-24T15:44:39;10.50;99.90
12700;DHT22;6414;49.570;6.060;2023-04-24T15:47:25;10.50;99.90
12700;DHT22;6414;49.570;6.060;2023-04-24T15:50:12;10.30;99.90
12700;DHT22;6414;49.570;6.060;2023-04-24T15:52:58;10.30;99.90
12700;DHT22;6414;49.570;6.060;2023-04-24T15:55:44;10.50;99.90
12700;DHT22;6414;49.570;6.060;2023-04-24T15:58:31;10.90;99.90
12700;DHT22;6414;49.570;6.060;2023-04-24T16:01:17;10.90;99.90
12700;DHT22;6414;49.570;6.060;2023-04-24T16:04:04;10.70;99.90
12700;DHT22;6414;49.570;6.060;2023-04-24T16:06:50;10.60;99.90
12700;DHT22;6414;49.570;6.060;2023-04-24T16:09:36;10.70;99.90
12700;DHT22;6414;49.570;6.060;2023-04-24T16:12:23;10.50;99.90
12700;DHT22;6414;49.570;6.060;2023-04-24T16:15:08;10.60;99.90
12700;DHT22;6414;49.570;6.060;2023-04-24T16:17:55;10.40;99.90
12700;DHT22;6414;49.570;6.060;2023-04-24T16:20:41;10.40;99.90
12700;DHT22;6414;49.570;6.060;2023-04-24T16:23:28;10.20;99.90
12700;DHT22;6414;49.570;6.060;2023-04-24T16:26:14;10.10;99.90
12700;DHT22;6414;49.570;6.060;2023-04-24T16:29:01;9.90;99.90
12700;DHT22;6414;49.570;6.060;2023-04-24T16:31:47;9.80;99.90
12700;DHT22;6414;49.570;6.060;2023-04-24T16:34:33;9.80;99.90
12700;DHT22;6414;49.570;6.060;2023-04-24T16:37:19;9.80;99.90
12700;DHT22;6414;49.570;6.060;2023-04-24T16:40:05;9.70;99.90
12700;DHT22;6414;49.570;6.060;2023-04-24T16:42:51;9.70;99.90
12700;DHT22;6414;49.570;6.060;2023-04-24T16:45:37;9.60;99.90
12700;DHT22;6414;49.570;6.060;2023-04-24T16:48:24;9.20;99.90
12700;DHT22;6414;49.570;6.060;2023-04-24T16:51:10;9.00;99.90
12700;DHT22;6414;49.570;6.060;2023-04-24T16:53:56;8.70;99.90
12700;DHT22;6414;49.570;6.060;2023-04-24T16:56:42;8.60;99.90
12700;DHT22;6414;49.570;6.060;2023-04-24T16:59:28;8.60;99.90
12700;DHT22;6414;49.570;6.060;2023-04-24T17:02:15;8.80;99.90
12700;DHT22;6414;49.570;6.060;2023-04-24T17:05:01;8.70;99.90
12700;DHT22;6414;49.570;6.060;2023-04-24T17:07:47;8.80;99.90
12700;DHT22;6414;49.570;6.060;2023-04-24T17:10:33;8.80;99.90
12700;DHT22;6414;49.570;6.060;2023-04-24T17:13:19;8.80;99.90
12700;DHT22;6414;49.570;6.060;2023-04-24T17:16:05;8.90;99.90
12700;DHT22;6414;49.570;6.060;2023-04-24T17:18:53;9.00;99.90
12700;DHT22;6414;49.570;6.060;2023-04-24T17:21:39;9.00;99.90
12700;DHT22;6414;49.570;6.060;2023-04-24T17:24:25;8.90;99.90
12700;DHT22;6414;49.570;6.060;2023-04-24T17:27:12;9.00;99.90
12700;DHT22;6414;49.570;6.060;2023-04-24T17:29:58;8.90;99.90
12700;DHT22;6414;49.570;6.060;2023-04-24T17:32:44;9.00;99.90
12700;DHT22;6414;49.570;6.060;2023-04-24T17:35:30;8.90;99.90
12700;DHT22;6414;49.570;6.060;2023-04-24T17:38:17;8.90;99.90
12700;DHT22;6414;49.570;6.060;2023-04-24T17:41:02;8.70;99.90
12700;DHT22;6414;49.570;6.060;2023-04-24T17:43:48;8.10;99.90
12700;DHT22;6414;49.570;6.060;2023-04-24T17:46:35;7.80;99.90
12700;DHT22;6414;49.570;6.060;2023-04-24T17:49:22;7.80;99.90
12700;DHT22;6414;49.570;6.060;2023-04-24T17:52:08;7.80;99.90
12700;DHT22;6414;49.570;6.060;2023-04-24T17:54:54;7.80;99.90
12700;DHT22;6414;49.570;6.060;2023-04-24T17:57:41;7.70;99.90
12700;DHT22;6414;49.570;6.060;2023-04-24T18:00:28;7.60;99.90